Omaha, Nebraska
Current Conditions -  °F | °C
As of 2:52 PM on Monday 24 Nov 2014 (Local Time) from KOMA Reporting Station
Scattered Clouds Scattered Clouds  
Wind Chill: 26°   Ceiling: Unl
Heat Index: 37°   Visibility: 10mi
Dew Point: 18°   Wind: 22mph
Humidity: 46%   Direction: 320°NW
Pressure: 29.8"   Gusts: NA
Location:  41.26°N, 95.94°W
Report Text: KOMA 242052Z 32019KT 10SM SCT041 SCT130 03/M08 A2980 RMK AO2 PK WND 32033/2034 SLP099 T00281078 51018
Loading
Personal Weather Stations






























Interactive Weather Map New forecast layout! Learn more

10-Day Weather Forecast

Advertisements
Track Severe Weather on mobile